createdAt,value
2018-12-21T00:01:33.262Z,95.07
2018-12-21T00:04:02.728Z,94.99
2018-12-21T00:06:32.141Z,94.90
2018-12-21T00:09:01.548Z,94.84
2018-12-21T00:11:31.011Z,94.88
2018-12-21T00:14:00.416Z,94.96
2018-12-21T00:16:29.971Z,94.85
2018-12-21T00:18:59.569Z,94.73
2018-12-21T00:21:29.077Z,94.81
2018-12-21T00:23:58.533Z,94.86
2018-12-21T00:26:27.964Z,95.01
2018-12-21T00:28:57.417Z,95.11
2018-12-21T00:31:32.079Z,95.08
2018-12-21T00:34:06.803Z,94.99
2018-12-21T00:36:41.481Z,94.76
2018-12-21T00:39:16.102Z,94.55
2018-12-21T00:41:44.654Z,94.49
2018-12-21T00:44:19.449Z,94.65
2018-12-21T00:46:54.119Z,94.03
2018-12-21T00:49:23.627Z,93.69
2018-12-21T00:51:53.056Z,94.32
2018-12-21T00:54:22.530Z,94.58
2018-12-21T00:56:53.036Z,94.66
2018-12-21T00:59:23.385Z,94.43
2018-12-21T01:01:52.903Z,94.04
2018-12-21T01:04:22.530Z,93.81
2018-12-21T01:06:52.172Z,94.22
2018-12-21T01:09:21.655Z,94.20
2018-12-21T01:11:51.218Z,94.36
2018-12-21T01:14:20.842Z,94.33
2018-12-21T01:16:50.360Z,94.53
2018-12-21T01:19:19.846Z,94.23
2018-12-21T01:21:49.463Z,94.14
2018-12-21T01:24:18.954Z,94.40
2018-12-21T01:26:48.373Z,94.52
2018-12-21T01:29:17.804Z,94.94
2018-12-21T01:31:47.234Z,94.35
2018-12-21T01:34:16.663Z,94.38
2018-12-21T01:36:46.113Z,94.71
2018-12-21T01:39:15.572Z,94.35
2018-12-21T01:41:45.048Z,94.35
2018-12-21T01:47:10.013Z,94.69
2018-12-21T01:49:39.549Z,94.50
2018-12-21T01:52:09.038Z,94.60
2018-12-21T01:54:38.461Z,94.07
2018-12-21T01:57:07.848Z,93.91
2018-12-21T01:59:37.376Z,94.30
2018-12-21T02:02:06.949Z,94.33
2018-12-21T02:04:36.337Z,94.37
2018-12-21T02:07:06.749Z,94.41
2018-12-21T02:09:36.142Z,94.46
2018-12-21T02:12:05.655Z,94.27
2018-12-21T02:14:35.192Z,94.31
2018-12-21T02:17:04.637Z,94.60
2018-12-21T02:19:35.150Z,94.44
2018-12-21T02:22:04.584Z,94.28
2018-12-21T02:27:01.709Z,94.32
2018-12-21T02:29:31.109Z,94.52
2018-12-21T02:32:00.587Z,94.71
2018-12-21T02:36:56.222Z,94.64
2018-12-21T02:39:25.613Z,94.46
2018-12-21T02:41:55.077Z,94.63
2018-12-21T02:44:24.519Z,94.65
2018-12-21T02:46:53.902Z,94.44
2018-12-21T02:49:23.323Z,94.33
2018-12-21T02:51:53.034Z,94.29
2018-12-21T02:54:22.461Z,94.57
2018-12-21T02:56:51.926Z,93.65
2018-12-21T02:59:21.372Z,94.65
2018-12-21T03:01:50.900Z,94.51
2018-12-21T03:04:20.329Z,94.69
2018-12-21T03:06:49.806Z,94.17
2018-12-21T03:09:19.233Z,94.51
2018-12-21T03:14:45.180Z,94.92
2018-12-21T03:17:14.784Z,95.21
2018-12-21T03:19:44.219Z,95.02
2018-12-21T03:22:15.036Z,94.66
2018-12-21T03:24:44.742Z,94.34
2018-12-21T03:27:14.194Z,94.60
2018-12-21T03:29:43.620Z,94.81
2018-12-21T03:32:13.026Z,94.57
2018-12-21T03:34:42.524Z,94.74
2018-12-21T03:37:12.066Z,94.97
2018-12-21T03:39:41.491Z,95.07
2018-12-21T03:42:10.916Z,95.04
2018-12-21T03:44:40.666Z,95.23
2018-12-21T03:47:10.102Z,94.45
2018-12-21T03:49:39.509Z,94.69
2018-12-21T03:52:10.098Z,95.16
2018-12-21T03:54:39.510Z,94.62
2018-12-21T03:57:09.158Z,94.57
2018-12-21T03:59:38.591Z,94.61
2018-12-21T04:02:07.981Z,94.88
2018-12-21T04:04:38.664Z,94.85
2018-12-21T04:07:08.074Z,94.96
2018-12-21T04:12:34.979Z,95.02
2018-12-21T04:15:04.971Z,95.01
2018-12-21T04:17:34.530Z,95.10
2018-12-21T04:20:04.239Z,95.15
2018-12-21T04:22:34.260Z,94.87
2018-12-21T04:25:04.157Z,94.89
2018-12-21T04:27:33.617Z,94.65
2018-12-21T04:33:08.426Z,94.58
2018-12-21T04:35:37.825Z,94.81
2018-12-21T04:38:07.315Z,94.55
2018-12-21T04:40:36.820Z,94.51
2018-12-21T04:43:06.213Z,93.89
2018-12-21T04:45:35.646Z,94.04
2018-12-21T04:48:05.314Z,93.92
2018-12-21T04:50:34.834Z,94.32
2018-12-21T04:53:04.365Z,94.31
2018-12-21T04:55:34.797Z,94.66
2018-12-21T04:58:04.404Z,94.17
2018-12-21T05:00:33.818Z,94.13
2018-12-21T05:03:06.997Z,94.33
2018-12-21T05:05:36.349Z,94.72
2018-12-21T05:08:05.742Z,94.66
2018-12-21T05:10:35.787Z,94.51
2018-12-21T05:13:05.463Z,94.55
2018-12-21T05:15:34.886Z,94.36
2018-12-21T05:18:05.013Z,94.15
2018-12-21T05:20:34.471Z,94.15
2018-12-21T05:23:03.982Z,93.86
2018-12-21T05:25:33.372Z,94.04
2018-12-21T05:28:02.864Z,94.04
2018-12-21T05:30:32.248Z,94.07
2018-12-21T05:33:02.480Z,94.16
2018-12-21T05:35:31.858Z,94.29
2018-12-21T05:38:01.206Z,94.42
2018-12-21T05:40:30.755Z,94.35
2018-12-21T05:43:00.153Z,93.80
2018-12-21T05:45:29.549Z,94.19
2018-12-21T05:47:58.985Z,93.94
2018-12-21T05:50:28.388Z,94.22
2018-12-21T05:53:00.902Z,94.32
2018-12-21T05:55:29.231Z,93.98
2018-12-21T05:57:58.574Z,94.11
2018-12-21T06:00:27.945Z,94.62
2018-12-21T06:02:57.384Z,94.80
2018-12-21T06:05:26.781Z,95.08
2018-12-21T06:07:56.266Z,95.12
2018-12-21T06:10:25.678Z,95.31
2018-12-21T06:12:55.034Z,94.72
2018-12-21T06:15:24.433Z,95.12
2018-12-21T06:17:53.867Z,95.15
2018-12-21T06:20:23.286Z,95.37
2018-12-21T06:22:52.654Z,95.12
2018-12-21T06:25:22.115Z,94.78
2018-12-21T06:27:51.530Z,94.93
2018-12-21T06:30:20.900Z,95.20
2018-12-21T06:32:50.293Z,94.66
2018-12-21T06:35:19.643Z,94.90
2018-12-21T06:37:49.054Z,95.39
2018-12-21T06:40:19.336Z,95.28
2018-12-21T06:42:50.729Z,95.04
2018-12-21T06:45:20.117Z,95.55
2018-12-21T06:47:49.509Z,95.22
2018-12-21T06:50:18.876Z,95.34
2018-12-21T06:52:48.364Z,95.10
2018-12-21T06:55:17.772Z,94.90
2018-12-21T06:57:47.109Z,95.10
2018-12-21T07:00:16.848Z,95.14
2018-12-21T07:02:46.204Z,95.39
2018-12-21T07:05:15.560Z,95.43
2018-12-21T07:07:44.985Z,95.38
2018-12-21T07:10:14.365Z,95.19
2018-12-21T07:12:43.753Z,94.98
2018-12-21T07:15:13.385Z,94.90
2018-12-21T07:17:42.841Z,95.30
2018-12-21T07:20:12.294Z,95.49
2018-12-21T07:22:41.725Z,94.86
2018-12-21T07:25:11.077Z,95.05
2018-12-21T07:27:40.433Z,94.86
2018-12-21T07:30:12.492Z,94.95
2018-12-21T07:32:42.015Z,94.85
2018-12-21T07:35:15.997Z,94.97
2018-12-21T07:37:45.411Z,94.91
2018-12-21T07:40:15.041Z,95.03
2018-12-21T07:42:44.421Z,95.00
2018-12-21T07:45:13.990Z,95.03
2018-12-21T07:47:43.385Z,95.02
2018-12-21T07:50:12.965Z,95.05
2018-12-21T07:52:42.365Z,95.29
2018-12-21T07:55:11.903Z,95.16
2018-12-21T07:57:41.277Z,95.14
2018-12-21T08:00:12.661Z,95.07
2018-12-21T08:02:42.046Z,94.92
2018-12-21T08:05:11.437Z,94.83
2018-12-21T08:07:40.858Z,94.33
2018-12-21T08:10:18.608Z,94.82
2018-12-21T08:12:48.021Z,94.64
2018-12-21T08:15:17.453Z,94.87
2018-12-21T08:17:47.396Z,94.96
2018-12-21T08:20:17.183Z,94.95
2018-12-21T08:22:46.516Z,94.97
2018-12-21T08:25:16.019Z,95.05
2018-12-21T08:27:45.537Z,95.06
2018-12-21T08:30:14.917Z,95.00
2018-12-21T08:32:44.362Z,95.04
2018-12-21T08:35:13.730Z,95.17
2018-12-21T08:37:43.107Z,95.11
2018-12-21T08:40:12.615Z,95.18
2018-12-21T08:42:42.005Z,95.45
2018-12-21T08:45:11.663Z,95.54
2018-12-21T08:47:41.094Z,95.47
2018-12-21T08:50:12.476Z,95.54
2018-12-21T08:55:47.921Z,95.67
2018-12-21T08:58:17.313Z,95.55
2018-12-21T09:00:46.822Z,95.47
2018-12-21T09:03:16.247Z,95.52
2018-12-21T09:05:45.613Z,95.49
2018-12-21T09:08:15.003Z,95.48
2018-12-21T09:10:44.484Z,95.67
2018-12-21T09:13:14.009Z,95.50
2018-12-21T09:15:43.421Z,95.41
2018-12-21T09:18:12.954Z,95.58
2018-12-21T09:20:42.428Z,95.40
2018-12-21T09:23:11.874Z,95.19
2018-12-21T09:25:41.375Z,94.64
2018-12-21T09:28:10.797Z,94.80
2018-12-21T09:30:40.148Z,94.60
2018-12-21T09:33:09.589Z,94.72
2018-12-21T09:35:39.042Z,94.20
2018-12-21T09:38:08.402Z,94.40
2018-12-21T09:40:38.184Z,94.52
2018-12-21T09:46:03.272Z,94.10
2018-12-21T09:48:32.617Z,94.32
2018-12-21T09:51:01.993Z,94.38
2018-12-21T09:53:31.406Z,93.84
2018-12-21T09:56:00.768Z,93.58
2018-12-21T09:58:30.139Z,93.78
2018-12-21T10:00:59.618Z,93.86
2018-12-21T10:03:29.182Z,93.57
2018-12-21T10:05:58.781Z,93.73
2018-12-21T10:08:28.164Z,93.71
2018-12-21T10:10:57.613Z,93.59
2018-12-21T10:13:27.049Z,93.39
2018-12-21T10:15:56.488Z,93.63
2018-12-21T10:18:25.920Z,93.39
2018-12-21T10:20:55.356Z,93.65
2018-12-21T10:23:24.832Z,93.62
2018-12-21T10:25:54.240Z,92.88
2018-12-21T10:28:23.598Z,92.68
2018-12-21T10:30:52.997Z,93.45
2018-12-21T10:33:22.418Z,93.14
2018-12-21T10:35:51.758Z,93.40
2018-12-21T10:38:21.149Z,93.48
2018-12-21T10:40:50.519Z,93.60
2018-12-21T10:43:19.879Z,93.27
2018-12-21T10:45:49.351Z,93.64
2018-12-21T10:48:18.772Z,93.85
2018-12-21T10:50:48.218Z,93.20
2018-12-21T10:53:17.742Z,94.11
2018-12-21T10:55:47.359Z,93.79
2018-12-21T10:58:16.772Z,93.69
2018-12-21T11:00:46.159Z,93.74
2018-12-21T11:03:15.698Z,94.16
2018-12-21T11:05:45.230Z,94.16
2018-12-21T11:08:14.603Z,94.42
2018-12-21T11:10:45.873Z,94.19
2018-12-21T11:13:15.452Z,94.28
2018-12-21T11:15:45.672Z,94.30
2018-12-21T11:18:15.075Z,94.09
2018-12-21T11:20:44.425Z,94.64
2018-12-21T11:23:14.030Z,94.61
2018-12-21T11:25:43.662Z,94.70
2018-12-21T11:28:13.104Z,95.08
2018-12-21T11:30:42.460Z,95.26
2018-12-21T11:33:11.849Z,95.19
2018-12-21T11:35:41.212Z,95.62
2018-12-21T11:38:10.591Z,95.59
2018-12-21T11:40:39.997Z,95.76
2018-12-21T11:43:09.439Z,95.66
2018-12-21T11:45:38.849Z,95.87
2018-12-21T11:48:08.399Z,96.40
2018-12-21T11:50:37.761Z,95.96
2018-12-21T11:53:07.227Z,96.13
2018-12-21T11:55:36.635Z,96.29
2018-12-21T11:58:06.066Z,96.48
2018-12-21T12:00:35.449Z,96.12
2018-12-21T12:03:04.953Z,96.33
2018-12-21T12:05:34.377Z,96.33
2018-12-21T12:08:03.832Z,96.91
2018-12-21T12:10:33.185Z,96.58
2018-12-21T12:13:02.559Z,96.75
2018-12-21T12:15:32.050Z,97.25
2018-12-21T12:18:01.399Z,97.46
2018-12-21T12:20:30.774Z,97.03
2018-12-21T12:23:00.232Z,97.05
2018-12-21T12:28:45.199Z,97.20
2018-12-21T12:31:14.734Z,97.32
2018-12-21T12:33:44.800Z,97.36
2018-12-21T12:36:14.965Z,97.60
2018-12-21T12:42:13.317Z,97.37
2018-12-21T12:44:43.168Z,97.57
2018-12-21T12:47:12.865Z,97.66
2018-12-21T12:53:03.712Z,97.73
2018-12-21T12:55:39.673Z,97.68
2018-12-21T12:58:19.651Z,98.07
2018-12-21T13:01:03.056Z,97.67
2018-12-21T13:03:39.500Z,97.26
2018-12-21T13:06:20.131Z,97.32
2018-12-21T13:12:15.516Z,97.43
2018-12-21T13:21:14.414Z,97.35
2018-12-21T13:23:44.152Z,97.51
2018-12-21T13:26:15.699Z,97.78
2018-12-21T13:28:48.784Z,97.65
2018-12-21T13:31:43.182Z,97.57
2018-12-21T13:37:32.350Z,97.72
2018-12-21T14:02:16.645Z,98.36
2018-12-21T14:04:46.141Z,98.50
2018-12-21T14:07:15.658Z,98.47
2018-12-21T14:25:07.450Z,97.75
2018-12-21T14:27:42.548Z,97.64
2018-12-21T14:33:17.350Z,97.82
2018-12-21T14:35:46.812Z,98.22
2018-12-21T14:38:16.325Z,98.54
2018-12-21T14:40:45.814Z,98.58
2018-12-21T14:43:15.258Z,98.46
2018-12-21T14:46:09.528Z,98.40
2018-12-21T14:48:52.016Z,98.32
2018-12-21T14:54:27.541Z,98.38
2018-12-21T14:57:03.842Z,98.08
2018-12-21T14:59:34.336Z,98.27
2018-12-21T15:02:03.907Z,98.18
2018-12-21T15:25:52.097Z,98.40
2018-12-21T16:23:55.865Z,98.51
2018-12-21T16:45:15.838Z,98.62
2018-12-21T16:48:47.383Z,98.75
2018-12-21T16:51:25.052Z,98.60
2018-12-21T16:54:00.298Z,98.57
2018-12-21T17:00:43.087Z,98.91
2018-12-21T17:03:21.034Z,99.09
2018-12-21T17:10:22.666Z,99.24
2018-12-21T17:13:04.228Z,99.56
2018-12-21T17:19:27.461Z,99.06
2018-12-21T17:22:01.481Z,99.10
2018-12-21T17:24:43.352Z,99.32
2018-12-21T17:27:19.099Z,99.17
2018-12-21T17:29:54.290Z,99.31
2018-12-21T18:19:39.342Z,99.21
2018-12-21T18:22:15.529Z,99.03
2018-12-21T18:25:00.353Z,98.79
2018-12-21T19:12:15.609Z,96.38
2018-12-21T19:14:45.597Z,97.05
2018-12-21T19:17:15.253Z,96.92
2018-12-21T20:13:40.913Z,95.13
2018-12-21T20:16:18.085Z,94.92
2018-12-21T21:03:10.329Z,96.31
2018-12-21T21:12:15.024Z,96.60
2018-12-21T21:14:44.473Z,96.86
2018-12-21T21:17:13.943Z,96.73
2018-12-21T21:19:43.396Z,97.08
2018-12-21T21:22:12.839Z,97.48
2018-12-21T21:24:42.298Z,97.40
2018-12-21T21:27:11.797Z,97.63
2018-12-21T21:29:41.701Z,97.66
2018-12-21T21:32:12.278Z,97.84
